3 – eServices

Baggage tracing
Cargo tracing
Weather
  • METAR

    EFMA 262220Z AUTO VRB01KT CAVOK M02/M04 Q1018

    EFTU 262220Z AUTO 30003KT CAVOK M03/M07 Q1016

    EFHK 262220Z 30004KT CAVOK M02/M10 Q1015 NOSIG

    ESSA 262150Z 18005KT CAVOK M01/M05 Q1018 R01L/19//95 R08/19//95 R01R/19//95 NOSIG

    ESSB 262150Z AUTO 19003KT 9999 BKN062/// M02/M04 Q1018

  • TAF n/a

Flightradar24